Time;durP1;ratioP1;P1;durP2;ratioP2;P2;SDS_P1;SDS_P2;PMS_P1;PMS_P2;Temp;Humidity;BMP_temperature;BMP_pressure;BME280_temperature;BME280_humidity;BME280_pressure;Samples;Min_cycle;Max_cycle;Signal;HPM_P1;HPM_P2
2021/01/26 00:02:52;;;;;;;28.37;16.20;;;;;;;-0.36;74.36;97772.16;2153542;82;21163;-78
2021/01/26 00:05:53;;;;;;;29.13;16.47;;;;;;;-0.37;74.67;97772.98;2149798;82;21488;-79
2021/01/26 00:08:54;;;;;;;30.73;17.70;;;;;;;-0.39;74.59;97775.90;2149894;82;21119;-79
2021/01/26 00:11:55;;;;;;;30.17;17.60;;;;;;;-0.39;74.89;97777.18;2149606;82;21147;-79
2021/01/26 00:14:56;;;;;;;40.00;18.93;;;;;;;-0.38;74.73;97780.20;2149211;82;21111;-79
2021/01/26 00:17:58;;;;;;;31.63;17.07;;;;;;;-0.37;75.12;97776.83;2149163;82;21432;-78
2021/01/26 00:20:59;;;;;;;35.23;18.90;;;;;;;-0.36;74.69;97773.45;2149895;82;21431;-78
2021/01/26 00:24:00;;;;;;;37.87;19.83;;;;;;;-0.36;74.96;97775.60;2149572;83;21241;-78
2021/01/26 00:27:02;;;;;;;42.57;20.47;;;;;;;-0.35;74.98;97776.48;2149173;82;21155;-77
2021/01/26 00:30:03;;;;;;;38.17;19.37;;;;;;;-0.33;74.83;97790.23;2149294;82;21131;-79
2021/01/26 00:33:04;;;;;;;36.77;19.97;;;;;;;-0.33;74.84;97786.38;2149487;82;21388;-78
2021/01/26 00:36:05;;;;;;;38.83;21.00;;;;;;;-0.34;75.00;97788.07;2149288;82;21135;-78
2021/01/26 00:39:06;;;;;;;38.60;20.50;;;;;;;-0.34;75.12;97788.48;2149071;82;21443;-78
2021/01/26 00:42:07;;;;;;;42.00;21.37;;;;;;;-0.36;75.21;97789.70;2149519;82;21845;-80
2021/01/26 00:45:09;;;;;;;45.23;22.53;;;;;;;-0.38;75.37;97793.91;2149712;83;21119;-77
2021/01/26 00:48:10;;;;;;;37.10;20.77;;;;;;;-0.39;75.34;97798.56;2149779;82;21141;-79
2021/01/26 00:51:11;;;;;;;40.57;21.80;;;;;;;-0.37;75.71;97795.65;2149691;82;21372;-80
2021/01/26 00:54:12;;;;;;;43.63;22.83;;;;;;;-0.37;75.67;97782.83;2149567;82;21135;-79
2021/01/26 00:57:19;;;;;;;38.70;21.60;;;;;;;-0.36;75.69;97799.96;2149897;82;21122;-78
2021/01/26 01:00:16;;;;;;;42.67;22.10;;;;;;;-0.40;75.63;97795.94;2148982;82;21155;-78
2021/01/26 01:03:18;;;;;;;36.40;20.33;;;;;;;-0.40;75.86;97801.07;2148755;83;21273;-80
2021/01/26 01:06:19;;;;;;;38.63;21.07;;;;;;;-0.39;75.87;97795.12;2148624;82;21186;-79
2021/01/26 01:09:20;;;;;;;36.93;21.67;;;;;;;-0.38;75.79;97794.31;2148947;83;21421;-80
2021/01/26 01:12:21;;;;;;;43.00;21.30;;;;;;;-0.39;75.94;97799.84;2149029;82;21159;-79
2021/01/26 01:15:22;;;;;;;40.20;21.63;;;;;;;-0.40;75.89;97795.94;2149232;82;21131;-79
2021/01/26 01:18:24;;;;;;;39.73;19.90;;;;;;;-0.41;75.93;97800.20;2149299;82;21419;-79
2021/01/26 01:21:25;;;;;;;44.00;22.60;;;;;;;-0.41;76.02;97798.05;2149557;82;21135;-79
2021/01/26 01:24:26;;;;;;;37.77;20.00;;;;;;;-0.42;76.01;97797.58;2149999;82;21159;-79
2021/01/26 01:27:27;;;;;;;39.47;20.23;;;;;;;-0.40;76.05;97800.66;2149757;82;21178;-79
2021/01/26 01:30:28;;;;;;;36.00;18.67;;;;;;;-0.37;76.11;97790.93;2149333;82;21170;-78
2021/01/26 01:33:29;;;;;;;34.47;19.53;;;;;;;-0.33;76.14;97794.08;2149204;82;21255;-78
2021/01/26 01:36:30;;;;;;;34.80;19.90;;;;;;;-0.30;76.23;97787.78;2148671;82;21150;-79
2021/01/26 01:39:32;;;;;;;36.83;20.00;;;;;;;-0.29;76.22;97792.50;2148897;82;21144;-77
2021/01/26 01:42:33;;;;;;;34.17;19.73;;;;;;;-0.29;76.27;97798.50;2149176;82;21092;-78
2021/01/26 01:45:34;;;;;;;31.00;18.13;;;;;;;-0.26;76.39;97796.05;2148925;82;21178;-78
2021/01/26 01:48:35;;;;;;;37.77;21.57;;;;;;;-0.24;76.38;97798.27;2149772;82;21131;-78
2021/01/26 01:51:36;;;;;;;33.83;20.37;;;;;;;-0.27;76.49;97807.13;2149759;82;21127;-78
2021/01/26 01:54:37;;;;;;;40.37;21.37;;;;;;;-0.30;76.56;97799.31;2149886;82;21162;-78
2021/01/26 01:57:38;;;;;;;39.97;23.27;;;;;;;-0.28;76.61;97801.53;2150156;82;21189;-79
2021/01/26 02:00:39;;;;;;;41.63;23.90;;;;;;;-0.29;76.73;97808.76;2149880;82;21155;-78
2021/01/26 02:03:41;;;;;;;39.00;22.60;;;;;;;-0.29;76.74;97814.30;2149772;83;21175;-79
2021/01/26 02:06:44;;;;;;;39.30;22.03;;;;;;;-0.27;76.80;97813.94;2150062;82;21194;-79
2021/01/26 02:09:45;;;;;;;37.70;21.07;;;;;;;-0.26;76.61;97812.72;2149985;82;21099;-78
2021/01/26 02:12:46;;;;;;;43.10;22.63;;;;;;;-0.28;76.65;97816.91;2150303;82;21134;-80
2021/01/26 02:15:47;;;;;;;35.70;20.47;;;;;;;-0.32;76.74;97817.20;2149581;82;21123;-78
2021/01/26 02:18:48;;;;;;;38.67;22.37;;;;;;;-0.33;76.69;97815.88;2150192;82;21388;-78
2021/01/26 02:21:49;;;;;;;37.07;21.73;;;;;;;-0.32;76.63;97813.36;2150012;82;21258;-78
2021/01/26 02:24:50;;;;;;;40.13;22.23;;;;;;;-0.30;76.44;97803.16;2149846;82;21240;-79
2021/01/26 02:27:51;;;;;;;39.00;22.67;;;;;;;-0.30;76.50;97799.31;2150295;82;21444;-78
2021/01/26 02:30:52;;;;;;;38.93;22.47;;;;;;;-0.28;76.15;97796.81;2149350;82;21135;-78
2021/01/26 02:33:54;;;;;;;38.40;20.90;;;;;;;-0.28;76.28;97801.94;2149101;82;21115;-78
2021/01/26 02:36:55;;;;;;;42.03;22.57;;;;;;;-0.32;76.11;97809.52;2149730;82;21095;-79
2021/01/26 02:39:56;;;;;;;35.77;20.10;;;;;;;-0.35;76.21;97808.13;2149765;82;21131;-78
2021/01/26 02:42:57;;;;;;;37.67;21.17;;;;;;;-0.36;76.17;97812.78;2149847;83;21134;-79
2021/01/26 02:45:58;;;;;;;35.93;21.07;;;;;;;-0.38;76.15;97817.39;2150122;82;21452;-80
2021/01/26 02:49:00;;;;;;;39.00;21.77;;;;;;;-0.37;76.29;97822.98;2149967;82;21137;-79
2021/01/26 02:52:01;;;;;;;36.47;20.33;;;;;;;-0.37;76.24;97823.85;2149682;83;21252;-78
2021/01/26 02:55:02;;;;;;;40.20;20.97;;;;;;;-0.36;76.04;97826.02;2149578;82;21428;-77
2021/01/26 02:58:03;;;;;;;38.23;18.90;;;;;;;-0.33;76.08;97828.69;2149826;83;21147;-77
2021/01/26 03:01:04;;;;;;;41.03;22.07;;;;;;;-0.32;76.01;97835.16;2149044;82;21147;-78
2021/01/26 03:04:05;;;;;;;38.93;22.10;;;;;;;-0.34;76.03;97834.63;2149480;82;21143;-79
2021/01/26 03:07:06;;;;;;;38.13;21.40;;;;;;;-0.36;76.30;97825.60;2150241;82;21171;-79
2021/01/26 03:10:07;;;;;;;37.87;22.23;;;;;;;-0.36;76.48;97824.73;2149801;82;21127;-81
2021/01/26 03:13:09;;;;;;;42.90;22.60;;;;;;;-0.37;76.74;97828.11;2149614;82;21135;-79
2021/01/26 03:16:10;;;;;;;47.50;24.87;;;;;;;-0.38;76.79;97835.34;2149688;82;21440;-82
2021/01/26 03:19:11;;;;;;;45.63;24.53;;;;;;;-0.39;76.98;97834.87;2150288;83;21111;-79
2021/01/26 03:22:12;;;;;;;51.70;27.60;;;;;;;-0.38;77.02;97831.48;2149829;82;21135;-79
2021/01/26 03:25:13;;;;;;;54.87;27.00;;;;;;;-0.41;77.24;97833.53;2149831;83;21127;-80
2021/01/26 03:28:14;;;;;;;42.60;23.20;;;;;;;-0.41;77.32;97836.50;2149860;82;21748;-79
2021/01/26 03:31:15;;;;;;;50.33;26.67;;;;;;;-0.39;77.44;97841.28;2149214;82;21134;-79
2021/01/26 03:34:16;;;;;;;41.80;22.53;;;;;;;-0.37;77.39;97839.65;2149427;82;21181;-79
2021/01/26 03:37:18;;;;;;;45.07;24.53;;;;;;;-0.33;77.47;97841.52;2149880;83;21727;-79
2021/01/26 03:40:19;;;;;;;48.80;25.30;;;;;;;-0.32;77.33;97838.13;2150094;83;21123;-79
2021/01/26 03:43:20;;;;;;;46.47;23.87;;;;;;;-0.31;77.42;97842.44;2150066;82;21096;-78
2021/01/26 03:46:21;;;;;;;41.90;24.73;;;;;;;-0.30;77.35;97845.47;2150083;83;21182;-80
2021/01/26 03:49:22;;;;;;;45.10;26.37;;;;;;;-0.28;77.37;97846.41;2149627;82;21135;-79
2021/01/26 03:52:23;;;;;;;48.60;25.80;;;;;;;-0.28;77.20;97855.38;2150032;82;21080;-79
2021/01/26 03:55:24;;;;;;;42.57;24.30;;;;;;;-0.26;77.16;97858.87;2149639;82;21123;-78
2021/01/26 03:58:25;;;;;;;44.33;24.33;;;;;;;-0.25;76.80;97863.60;2149675;83;21155;-79
2021/01/26 04:01:26;;;;;;;39.93;22.90;;;;;;;-0.29;76.62;97862.61;2149354;82;21416;-80
2021/01/26 04:04:27;;;;;;;38.93;24.27;;;;;;;-0.31;76.79;97866.80;2150109;82;21159;-78
2021/01/26 04:07:28;;;;;;;38.70;23.30;;;;;;;-0.31;76.71;97868.09;2149390;82;21155;-80
2021/01/26 04:10:29;;;;;;;36.80;22.07;;;;;;;-0.34;76.66;97870.53;2149409;82;21131;-80
2021/01/26 04:13:30;;;;;;;43.00;24.10;;;;;;;-0.34;76.23;97869.25;2149966;82;21155;-79
2021/01/26 04:16:31;;;;;;;35.23;22.17;;;;;;;-0.35;76.40;97875.20;2149730;82;21119;-80
2021/01/26 04:19:32;;;;;;;34.97;21.13;;;;;;;-0.35;76.06;97890.58;2149758;82;21436;-79
2021/01/26 04:22:33;;;;;;;34.83;19.73;;;;;;;-0.35;75.90;97890.58;2149822;82;21091;-80
2021/01/26 04:25:34;;;;;;;32.63;19.40;;;;;;;-0.37;75.71;97881.95;2149599;82;21165;-80
2021/01/26 04:28:36;;;;;;;31.97;17.37;;;;;;;-0.37;75.61;97890.52;2149224;83;21265;-79
2021/01/26 04:31:37;;;;;;;29.23;18.03;;;;;;;-0.34;74.94;97893.20;2148914;82;21416;-79
2021/01/26 04:34:38;;;;;;;31.07;17.50;;;;;;;-0.32;74.59;97893.27;2148982;82;21163;-78
2021/01/26 04:37:39;;;;;;;34.37;19.67;;;;;;;-0.32;74.48;97885.57;2148993;83;21151;-79
2021/01/26 04:40:40;;;;;;;34.80;18.70;;;;;;;-0.34;74.50;97889.77;2148520;82;21253;-79
2021/01/26 04:43:41;;;;;;;30.80;17.83;;;;;;;-0.34;74.09;97896.17;2147763;82;21123;-79
2021/01/26 04:46:42;;;;;;;28.60;16.67;;;;;;;-0.36;74.10;97901.24;2147462;82;21282;-80
2021/01/26 04:49:43;;;;;;;30.93;17.53;;;;;;;-0.36;74.42;97901.24;2146751;82;21232;-79
2021/01/26 04:52:44;;;;;;;29.60;17.20;;;;;;;-0.36;74.35;97904.22;2146048;82;21151;-79
2021/01/26 04:55:45;;;;;;;24.33;14.80;;;;;;;-0.37;74.37;97899.91;2146816;82;21123;-79
2021/01/26 04:58:46;;;;;;;24.90;15.00;;;;;;;-0.37;74.27;97892.21;2147332;82;21119;-79
2021/01/26 05:01:47;;;;;;;27.70;16.30;;;;;;;-0.37;74.77;97887.08;2146657;82;21129;-79
2021/01/26 05:04:48;;;;;;;32.20;15.77;;;;;;;-0.34;74.17;97902.18;2149911;82;21167;-79
2021/01/26 05:07:50;;;;;;;29.33;16.60;;;;;;;-0.36;74.28;97893.95;2152586;83;21284;-79
2021/01/26 05:10:51;;;;;;;28.73;17.13;;;;;;;-0.38;74.63;97893.90;2153231;82;21579;-80
2021/01/26 05:13:52;;;;;;;33.10;18.67;;;;;;;-0.40;75.03;97886.97;2153348;82;21162;-78
2021/01/26 05:16:53;;;;;;;36.90;19.50;;;;;;;-0.44;75.04;97897.91;2153875;82;21249;-79
2021/01/26 05:19:54;;;;;;;30.80;18.50;;;;;;;-0.47;75.19;97888.82;2153718;83;21258;-79
2021/01/26 05:22:55;;;;;;;39.80;21.03;;;;;;;-0.48;75.43;97897.33;2152288;82;21249;-79
2021/01/26 05:25:56;;;;;;;35.40;20.63;;;;;;;-0.48;75.51;97891.79;2152503;82;21279;-79
2021/01/26 05:28:57;;;;;;;32.13;18.47;;;;;;;-0.48;75.47;97899.89;2151804;82;21256;-78
2021/01/26 05:31:58;;;;;;;31.83;19.13;;;;;;;-0.47;75.60;97902.92;2152181;82;21275;-77
2021/01/26 05:34:59;;;;;;;32.13;18.40;;;;;;;-0.48;75.41;97903.73;2152811;82;21249;-77
2021/01/26 05:38:00;;;;;;;34.90;19.07;;;;;;;-0.49;75.66;97901.98;2152633;82;21269;-78
2021/01/26 05:41:02;;;;;;;29.83;17.80;;;;;;;-0.50;75.68;97910.48;2154050;83;21130;-77
2021/01/26 05:44:03;;;;;;;29.13;16.57;;;;;;;2.70;86.16;97900.88;2153309;82;21257;-78
2021/01/26 05:47:04;;;;;;;35.70;19.10;;;;;;;3.17;67.03;97906.00;2153353;82;21281;-78
2021/01/26 05:50:05;;;;;;;35.97;21.73;;;;;;;1.77;68.71;97909.28;2153357;82;21253;-78
2021/01/26 05:53:06;;;;;;;38.87;22.40;;;;;;;1.03;70.61;97920.53;2153047;82;21803;-79
2021/01/26 05:56:09;;;;;;;34.73;20.23;;;;;;;0.53;71.72;97923.45;2152741;82;21274;-79
2021/01/26 05:59:11;;;;;;;35.33;20.83;;;;;;;0.23;72.74;97929.63;2152296;82;21285;-78
2021/01/26 06:02:12;;;;;;;38.90;23.77;;;;;;;0.02;73.47;97931.38;2152366;82;21273;-80
2021/01/26 06:05:16;;;;;;;33.60;20.57;;;;;;;-0.11;74.15;97935.13;2149877;82;21483;-80
2021/01/26 06:08:16;;;;;;;43.10;24.03;;;;;;;-0.21;74.70;97936.88;2119479;83;21642;-80
2021/01/26 06:11:17;;;;;;;46.70;26.07;;;;;;;-0.27;74.90;97941.77;2138807;83;21178;-79
2021/01/26 06:14:18;;;;;;;49.63;24.90;;;;;;;-0.30;75.09;97935.64;2121927;83;21271;-79
2021/01/26 06:17:19;;;;;;;39.37;23.77;;;;;;;-0.33;75.19;97941.52;2139932;82;21123;-79
2021/01/26 06:20:20;;;;;;;41.37;22.47;;;;;;;-0.34;75.18;97950.91;2121720;83;21253;-78
2021/01/26 06:23:21;;;;;;;45.77;23.77;;;;;;;-0.33;75.41;97945.37;2139982;82;21507;-78
2021/01/26 06:26:24;;;;;;;48.53;26.87;;;;;;;-0.32;75.50;97945.83;2121010;83;21644;-80
2021/01/26 06:29:25;;;;;;;42.97;23.60;;;;;;;-0.30;75.58;97956.16;2140425;82;21393;-79
2021/01/26 06:32:26;;;;;;;50.83;26.03;;;;;;;-0.29;75.58;97957.90;2121155;84;21162;-80
2021/01/26 06:35:28;;;;;;;48.90;23.93;;;;;;;-0.30;75.62;97960.88;2140315;82;21265;-80
2021/01/26 06:38:29;;;;;;;43.43;24.93;;;;;;;-0.28;75.56;97969.50;2121604;83;21425;-78
2021/01/26 06:41:30;;;;;;;41.80;23.33;;;;;;;-0.25;75.33;97972.59;2140792;82;21130;-78
2021/01/26 06:44:31;;;;;;;45.30;25.33;;;;;;;-0.25;75.32;97980.30;2121803;83;21110;-79
2021/01/26 06:47:32;;;;;;;40.93;24.30;;;;;;;-0.25;75.51;97979.88;2140577;82;21155;-79
2021/01/26 06:50:33;;;;;;;53.40;28.60;;;;;;;-0.24;75.75;97983.33;2121954;83;21240;-79
2021/01/26 06:53:34;;;;;;;46.13;25.17;;;;;;;-0.27;75.85;97979.35;2139860;82;21885;-80
2021/01/26 06:56:35;;;;;;;43.13;25.37;;;;;;;-0.27;76.18;97984.08;2122121;83;21268;-79
2021/01/26 06:59:36;;;;;;;48.43;27.90;;;;;;;-0.26;76.14;97982.39;2139931;82;21115;-79
2021/01/26 07:02:38;;;;;;;41.77;23.43;;;;;;;-0.26;76.41;97981.11;2121543;84;21251;-79
2021/01/26 07:05:39;;;;;;;48.97;26.50;;;;;;;-0.24;76.61;97978.20;2143925;82;21298;-80
2021/01/26 07:08:40;;;;;;;54.47;28.50;;;;;;;-0.24;76.67;97986.77;2124569;83;21575;-79
2021/01/26 07:11:41;;;;;;;39.30;22.63;;;;;;;-0.20;76.57;97982.63;2145955;83;21282;-80
2021/01/26 07:14:42;;;;;;;50.50;29.07;;;;;;;-0.20;76.69;97987.77;2125414;83;21264;-80
2021/01/26 07:17:43;;;;;;;45.47;24.73;;;;;;;-0.19;76.73;97989.11;2146900;83;21254;-83
2021/01/26 07:20:44;;;;;;;44.33;24.07;;;;;;;-0.18;76.66;97987.01;2124286;83;21086;-82
2021/01/26 07:23:45;;;;;;;48.83;25.77;;;;;;;-0.15;76.53;97995.23;2146771;83;21241;-79
2021/01/26 07:26:46;;;;;;;37.67;20.83;;;;;;;-0.17;76.55;97997.73;2125455;83;21621;-80
2021/01/26 07:29:47;;;;;;;40.23;23.67;;;;;;;-0.17;76.60;97997.73;2146880;83;21230;-78
2021/01/26 07:32:48;;;;;;;43.97;24.67;;;;;;;-0.15;76.52;97998.67;2124944;83;21229;-81
2021/01/26 07:35:49;;;;;;;50.07;25.50;;;;;;;-0.11;76.57;98005.67;2146431;83;21273;-80
2021/01/26 07:38:51;;;;;;;41.23;23.37;;;;;;;-0.09;76.44;98001.48;2125617;83;21252;-81
2021/01/26 07:41:52;;;;;;;44.13;26.30;;;;;;;-0.06;76.30;98003.30;2146522;83;21230;-78
2021/01/26 07:44:53;;;;;;;34.63;21.97;;;;;;;-0.06;76.17;98010.58;2125420;84;21102;-78
2021/01/26 07:47:54;;;;;;;38.33;18.73;;;;;;;-0.06;76.17;98012.27;2146253;83;21290;-80
2021/01/26 07:50:57;;;;;;;42.20;22.17;;;;;;;-0.05;76.09;98008.89;2125314;83;21117;-79
2021/01/26 07:53:58;;;;;;;40.87;22.43;;;;;;;-0.04;75.89;98015.37;2147071;83;21242;-79
2021/01/26 07:56:59;;;;;;;41.13;22.67;;;;;;;-0.02;75.87;98014.14;2124661;83;21243;-79
2021/01/26 08:00:01;;;;;;;38.87;23.17;;;;;;;-0.01;75.76;98010.36;2146472;83;21866;-79
2021/01/26 08:03:02;;;;;;;43.67;24.87;;;;;;;0.00;75.69;98008.70;2124456;83;21240;-78
2021/01/26 08:06:03;;;;;;;47.17;25.77;;;;;;;0.05;75.82;98011.03;2145428;82;21296;-80
2021/01/26 08:09:04;;;;;;;49.23;25.10;;;;;;;0.12;75.72;98013.44;2121432;84;21388;-78
2021/01/26 08:12:06;;;;;;;54.50;26.43;;;;;;;0.12;75.67;98008.30;2139737;82;21251;-79
2021/01/26 08:15:07;;;;;;;52.20;25.77;;;;;;;0.16;75.62;98017.47;2143525;83;21285;-80
2021/01/26 08:18:08;;;;;;;53.50;27.17;;;;;;;0.20;75.13;98008.20;2144008;82;21788;-79
2021/01/26 08:21:09;;;;;;;49.77;27.33;;;;;;;0.27;75.36;98014.03;2144367;83;21299;-80
2021/01/26 08:24:10;;;;;;;42.07;21.70;;;;;;;0.37;75.14;98013.56;2143859;82;21401;-79
2021/01/26 08:27:11;;;;;;;43.03;24.87;;;;;;;0.45;74.42;98025.00;2144059;82;21159;-80
2021/01/26 08:30:12;;;;;;;40.37;22.30;;;;;;;0.50;74.72;98021.33;2143781;82;21306;-79
2021/01/26 08:33:13;;;;;;;36.80;21.90;;;;;;;0.60;74.41;98028.56;2144437;82;21429;-79
2021/01/26 08:36:14;;;;;;;43.77;23.23;;;;;;;0.59;73.36;98035.39;2143928;82;21135;-79
2021/01/26 08:39:15;;;;;;;51.77;25.87;;;;;;;0.61;73.30;98026.45;2144123;82;21583;-81
2021/01/26 08:42:16;;;;;;;45.30;23.03;;;;;;;0.64;73.77;98035.56;2143534;82;21566;-78
2021/01/26 08:45:17;;;;;;;41.20;22.87;;;;;;;0.73;73.63;98038.47;2143525;82;21127;-78
2021/01/26 08:48:18;;;;;;;44.47;24.10;;;;;;;0.76;72.64;98045.41;2143788;82;21835;-78
2021/01/26 08:51:20;;;;;;;42.97;23.20;;;;;;;0.81;73.05;98043.89;2143862;82;21120;-78
2021/01/26 08:54:21;;;;;;;47.17;24.60;;;;;;;0.82;72.54;98050.78;2143932;83;21163;-79
2021/01/26 08:57:22;;;;;;;46.63;25.70;;;;;;;0.81;72.66;98049.03;2144128;82;21731;-78
2021/01/26 09:00:23;;;;;;;43.87;23.20;;;;;;;0.89;72.71;98052.79;2143526;82;21151;-78
2021/01/26 09:03:24;;;;;;;38.47;22.37;;;;;;;0.91;72.22;98062.72;2142432;82;21274;-78
2021/01/26 09:06:25;;;;;;;41.10;22.13;;;;;;;0.98;72.32;98059.55;2147251;82;21325;-79
2021/01/26 09:09:26;;;;;;;44.37;24.53;;;;;;;0.97;72.23;98064.23;2149360;81;21162;-80
2021/01/26 09:12:27;;;;;;;37.43;22.47;;;;;;;1.02;71.46;98065.27;2150839;81;21459;-79
2021/01/26 09:15:29;;;;;;;38.50;21.37;;;;;;;1.00;71.71;98064.34;2149794;81;21719;-80
2021/01/26 09:18:30;;;;;;;32.33;18.67;;;;;;;1.00;71.87;98068.60;2150718;81;21262;-80
2021/01/26 09:21:31;;;;;;;35.73;19.77;;;;;;;1.02;71.92;98070.41;2150518;83;21159;-79
2021/01/26 09:24:32;;;;;;;31.63;16.73;;;;;;;1.07;71.51;98073.14;2150488;83;21134;-80
2021/01/26 09:27:35;;;;;;;39.77;21.70;;;;;;;1.39;82.75;98076.88;2150415;81;21297;-79
2021/01/26 09:30:36;;;;;;;36.50;21.37;;;;;;;3.95;71.88;98075.75;2149824;81;21165;-80
2021/01/26 09:33:38;;;;;;;39.10;21.37;;;;;;;2.95;66.91;98072.13;2150244;83;21273;-79
2021/01/26 09:36:39;;;;;;;38.07;21.27;;;;;;;2.30;68.55;98079.98;2149712;81;21095;-80
2021/01/26 09:39:40;;;;;;;40.83;21.80;;;;;;;1.95;68.33;98083.98;2151543;83;21130;-79
2021/01/26 09:42:41;;;;;;;46.10;22.50;;;;;;;1.67;69.04;98090.28;2149454;81;21256;-79
2021/01/26 09:45:42;;;;;;;38.90;20.77;;;;;;;1.53;69.72;98086.81;2149474;81;21707;-79
2021/01/26 09:48:43;;;;;;;42.20;21.90;;;;;;;1.46;69.83;98091.70;2150481;81;21133;-80
2021/01/26 09:51:44;;;;;;;42.43;22.50;;;;;;;1.42;69.82;98093.69;2150418;81;21404;-78
2021/01/26 09:54:50;;;;;;;44.57;24.47;;;;;;;1.41;70.06;98094.52;2150501;81;21238;-79
2021/01/26 09:57:49;;;;;;;55.93;28.17;;;;;;;1.37;70.17;98094.81;2149935;82;21852;-79
2021/01/26 10:00:50;;;;;;;44.87;25.80;;;;;;;1.34;70.42;98089.56;2150232;81;21127;-80
2021/01/26 10:03:52;;;;;;;42.17;24.30;;;;;;;1.38;70.20;98088.85;2150508;81;21183;-80
2021/01/26 10:06:53;;;;;;;45.90;22.27;;;;;;;1.45;69.89;98095.09;2150267;81;21273;-78
2021/01/26 10:09:54;;;;;;;35.57;19.60;;;;;;;1.50;69.92;98098.70;2150452;81;21158;-79
2021/01/26 10:12:55;;;;;;;37.00;20.73;;;;;;;1.50;69.63;98102.14;2150491;81;21111;-79
2021/01/26 10:15:56;;;;;;;39.87;21.80;;;;;;;1.51;69.47;98106.47;2150766;81;21288;-81
2021/01/26 10:18:57;;;;;;;42.60;21.77;;;;;;;1.55;69.80;98103.59;2150923;83;21254;-79
2021/01/26 10:21:59;;;;;;;38.50;20.63;;;;;;;1.56;69.58;98106.22;2150917;81;21134;-78
2021/01/26 10:25:00;;;;;;;44.10;24.40;;;;;;;1.55;69.48;98099.32;2150949;81;21585;-82
2021/01/26 10:28:01;;;;;;;42.87;23.37;;;;;;;1.55;69.21;98102.30;2151087;83;21167;-81
2021/01/26 10:31:02;;;;;;;33.53;21.10;;;;;;;1.64;69.71;98100.05;2150613;81;21138;-79
2021/01/26 10:34:03;;;;;;;41.03;20.73;;;;;;;1.69;69.37;98110.09;2150728;81;21123;-81
2021/01/26 10:37:04;;;;;;;42.27;21.17;;;;;;;1.67;68.66;98104.02;2150501;81;21835;-82
2021/01/26 10:40:08;;;;;;;41.13;21.33;;;;;;;1.64;68.69;98109.05;2150449;83;21251;-80
2021/01/26 10:43:09;;;;;;;46.50;22.80;;;;;;;1.63;68.81;98111.58;2150616;81;21551;-81
2021/01/26 10:46:10;;;;;;;41.53;21.60;;;;;;;1.70;69.18;98110.97;2150670;81;21317;-79
2021/01/26 10:49:12;;;;;;;37.20;21.10;;;;;;;1.72;68.52;98119.20;2150835;81;21130;-79
2021/01/26 10:52:13;;;;;;;35.30;19.40;;;;;;;1.66;68.92;98106.53;2151293;81;21273;-80
2021/01/26 10:55:14;;;;;;;32.10;17.40;;;;;;;1.63;69.07;98109.88;2150584;81;21115;-81
2021/01/26 10:58:15;;;;;;;39.43;22.17;;;;;;;1.67;68.38;98110.45;2150336;81;21444;-80
2021/01/26 11:01:16;;;;;;;35.77;20.83;;;;;;;1.73;69.35;98111.95;2150298;81;21135;-80
2021/01/26 11:04:20;;;;;;;37.57;19.97;;;;;;;1.82;68.75;98108.84;2150225;81;21388;-80
2021/01/26 11:07:21;;;;;;;37.07;19.40;;;;;;;1.86;68.03;98118.02;2153712;81;21300;-78
2021/01/26 11:10:23;;;;;;;33.87;20.57;;;;;;;1.77;68.43;98121.55;2154597;83;21269;-80
2021/01/26 11:13:24;;;;;;;37.30;21.40;;;;;;;1.76;68.94;98117.23;2154461;82;21261;-79
2021/01/26 11:16:25;;;;;;;37.47;21.77;;;;;;;1.64;68.61;98110.34;2154225;82;21623;-79
2021/01/26 11:19:26;;;;;;;45.77;21.30;;;;;;;1.52;69.27;98120.20;2154449;82;21252;-79
2021/01/26 11:22:27;;;;;;;33.93;19.47;;;;;;;1.43;69.37;98113.45;2154083;82;21265;-79
2021/01/26 11:25:29;;;;;;;33.03;19.27;;;;;;;1.33;69.32;98123.81;2154537;82;21563;-80
2021/01/26 11:28:30;;;;;;;50.67;24.33;;;;;;;1.26;69.97;98120.14;2154295;83;21236;-80
2021/01/26 11:31:31;;;;;;;38.90;21.43;;;;;;;1.25;70.03;98114.95;2154615;82;21254;-80
2021/01/26 11:34:32;;;;;;;33.17;20.60;;;;;;;1.17;70.80;98121.09;2154405;83;21261;-79
2021/01/26 11:37:33;;;;;;;40.03;22.83;;;;;;;1.29;70.84;98118.09;2154723;83;21591;-79
2021/01/26 11:40:35;;;;;;;39.47;22.37;;;;;;;1.37;70.59;98116.67;2154136;83;21288;-81
2021/01/26 11:43:36;;;;;;;36.33;21.53;;;;;;;1.45;70.45;98108.82;2154909;82;21282;-79
2021/01/26 11:46:37;;;;;;;35.37;20.67;;;;;;;1.43;70.35;98112.16;2154880;82;21421;-80
2021/01/26 11:49:38;;;;;;;37.17;21.07;;;;;;;1.41;70.67;98111.23;2155233;82;21531;-81
2021/01/26 11:52:39;;;;;;;38.30;22.67;;;;;;;1.37;71.13;98104.22;2155441;82;21241;-79
2021/01/26 11:55:40;;;;;;;43.53;22.60;;;;;;;1.37;71.32;98110.66;2154445;82;21499;-80
2021/01/26 11:58:41;;;;;;;40.07;22.70;;;;;;;1.18;71.97;98113.84;2154414;82;21135;-80
2021/01/26 12:01:42;;;;;;;36.07;23.30;;;;;;;1.12;72.52;98113.62;2153905;82;21281;-79
2021/01/26 12:04:43;;;;;;;35.47;21.70;;;;;;;1.15;72.82;98106.02;2154324;82;21119;-79
2021/01/26 12:07:45;;;;;;;46.57;26.90;;;;;;;1.12;73.65;98107.60;2153926;82;21289;-80
2021/01/26 12:10:46;;;;;;;49.30;24.50;;;;;;;1.04;73.77;98102.18;2154083;82;21896;-82
2021/01/26 12:13:47;;;;;;;53.90;28.90;;;;;;;0.94;74.26;98111.65;2153794;82;21248;-80
2021/01/26 12:16:48;;;;;;;55.03;29.97;;;;;;;0.87;74.43;98106.69;2153728;82;21261;-80
2021/01/26 12:19:49;;;;;;;64.57;33.40;;;;;;;0.84;74.37;98100.53;2153531;82;21115;-78
2021/01/26 12:22:50;;;;;;;62.37;32.23;;;;;;;0.82;74.31;98104.73;2153571;82;21130;-79
2021/01/26 12:25:54;;;;;;;39.73;24.20;;;;;;;0.90;74.46;98109.38;2153046;83;21241;-80
2021/01/26 12:28:54;;;;;;;40.13;23.40;;;;;;;0.94;74.11;98101.38;2153338;82;21577;-79
2021/01/26 12:31:55;;;;;;;40.57;22.93;;;;;;;1.16;75.94;98106.90;2153575;82;21927;-79
2021/01/26 12:34:56;;;;;;;44.70;25.60;;;;;;;1.31;73.78;98102.72;2153167;82;21254;-79
2021/01/26 12:37:58;;;;;;;40.13;23.00;;;;;;;1.40;73.61;98105.62;2153324;83;21127;-78
2021/01/26 12:40:59;;;;;;;43.80;25.17;;;;;;;1.58;73.67;98104.57;2153315;82;21261;-79
2021/01/26 12:44:02;;;;;;;41.03;23.13;;;;;;;1.62;72.96;98099.12;2152738;82;21249;-76
2021/01/26 12:47:03;;;;;;;45.27;26.03;;;;;;;1.60;72.84;98100.77;2153092;82;21325;-79
2021/01/26 12:50:04;;;;;;;50.70;28.40;;;;;;;1.53;72.67;98099.67;2153163;82;21249;-78
2021/01/26 12:53:06;;;;;;;42.63;23.83;;;;;;;1.53;72.66;98105.23;2153344;82;21630;-78
2021/01/26 12:56:07;;;;;;;41.63;24.23;;;;;;;1.45;72.38;98102.80;2152480;82;21560;-77
2021/01/26 12:59:08;;;;;;;42.43;24.43;;;;;;;1.44;72.75;98108.77;2152792;82;21274;-77
2021/01/26 13:02:09;;;;;;;40.17;23.60;;;;;;;1.39;72.57;98117.60;2151651;82;21599;-78
2021/01/26 13:05:11;;;;;;;35.60;21.73;;;;;;;1.32;72.49;98113.06;2152337;82;21293;-76
2021/01/26 13:08:12;;;;;;;36.57;23.23;;;;;;;1.34;72.22;98111.83;2160276;82;21304;-78
2021/01/26 13:11:13;;;;;;;36.83;21.63;;;;;;;1.25;72.54;98113.66;2206365;80;21233;-79
2021/01/26 13:14:14;;;;;;;40.83;24.67;;;;;;;1.21;72.46;98121.67;2204687;79;21221;-78
2021/01/26 13:17:15;;;;;;;45.90;27.13;;;;;;;1.15;72.83;98127.87;2205875;80;21110;-78
2021/01/26 13:20:16;;;;;;;40.43;23.60;;;;;;;1.17;72.96;98119.80;2205850;81;21102;-78
2021/01/26 13:23:19;;;;;;;51.53;27.13;;;;;;;1.12;73.09;98120.05;2206201;80;21191;-77
2021/01/26 13:26:21;;;;;;;58.47;28.33;;;;;;;1.06;73.05;98124.95;2206506;80;21432;-77
2021/01/26 13:29:23;;;;;;;47.43;27.00;;;;;;;1.00;73.63;98132.44;2206461;80;21476;-77
2021/01/26 13:32:24;;;;;;;42.73;24.77;;;;;;;0.90;73.33;98132.91;2206317;81;21161;-77
2021/01/26 13:35:25;;;;;;;45.50;25.63;;;;;;;0.87;73.68;98130.22;2206844;80;21237;-77
2021/01/26 13:38:27;;;;;;;55.57;29.67;;;;;;;0.85;73.62;98133.11;2206096;80;21106;-77
2021/01/26 13:41:28;;;;;;;48.63;26.93;;;;;;;0.85;73.72;98136.97;2207521;81;21236;-78
2021/01/26 13:44:29;;;;;;;74.77;32.60;;;;;;;0.80;73.75;98134.22;2207450;81;21115;-77
2021/01/26 13:47:30;;;;;;;55.93;27.63;;;;;;;0.80;73.70;98139.36;2206845;80;21269;-78
2021/01/26 13:50:31;;;;;;;48.87;25.73;;;;;;;0.76;73.51;98145.60;2207638;80;21397;-76
2021/01/26 13:53:32;;;;;;;54.47;27.37;;;;;;;0.74;73.46;98149.39;2206480;80;21059;-78
2021/01/26 13:56:33;;;;;;;48.20;27.40;;;;;;;0.76;73.63;98148.17;2206044;80;21120;-78
2021/01/26 13:59:34;;;;;;;44.87;23.00;;;;;;;0.91;77.03;98149.67;2206927;80;21122;-78